sensor_id;sensor_type;location;lat;lon;timestamp;temperature;humidity
12655;DHT22;6392;44.644;11.448;2023-12-14T00:01:46;8.10;99.90
12655;DHT22;6392;44.644;11.448;2023-12-14T00:04:15;8.10;99.90
12655;DHT22;6392;44.644;11.448;2023-12-14T00:06:42;8.10;99.90
12655;DHT22;6392;44.644;11.448;2023-12-14T00:09:09;8.20;99.90
12655;DHT22;6392;44.644;11.448;2023-12-14T00:11:38;8.20;99.90
12655;DHT22;6392;44.644;11.448;2023-12-14T00:14:05;8.10;99.90
12655;DHT22;6392;44.644;11.448;2023-12-14T00:16:32;8.10;99.90
12655;DHT22;6392;44.644;11.448;2023-12-14T00:18:59;8.10;99.90
12655;DHT22;6392;44.644;11.448;2023-12-14T00:21:27;8.10;99.90
12655;DHT22;6392;44.644;11.448;2023-12-14T00:23:54;8.10;99.90
12655;DHT22;6392;44.644;11.448;2023-12-14T00:26:21;8.10;99.90
12655;DHT22;6392;44.644;11.448;2023-12-14T00:28:48;8.20;99.90
12655;DHT22;6392;44.644;11.448;2023-12-14T00:31:15;8.20;99.90
12655;DHT22;6392;44.644;11.448;2023-12-14T00:33:42;8.20;99.90
12655;DHT22;6392;44.644;11.448;2023-12-14T00:36:11;8.20;99.90
12655;DHT22;6392;44.644;11.448;2023-12-14T00:38:45;8.10;99.90
12655;DHT22;6392;44.644;11.448;2023-12-14T00:41:12;8.10;99.90
12655;DHT22;6392;44.644;11.448;2023-12-14T00:43:39;8.10;99.90
12655;DHT22;6392;44.644;11.448;2023-12-14T00:46:07;8.20;99.90
12655;DHT22;6392;44.644;11.448;2023-12-14T00:48:35;8.20;99.90
12655;DHT22;6392;44.644;11.448;2023-12-14T00:51:02;8.20;99.90
12655;DHT22;6392;44.644;11.448;2023-12-14T00:53:29;8.20;99.90
12655;DHT22;6392;44.644;11.448;2023-12-14T00:55:57;8.20;99.90
12655;DHT22;6392;44.644;11.448;2023-12-14T00:58:24;8.10;99.90
12655;DHT22;6392;44.644;11.448;2023-12-14T01:00:51;8.10;99.90
12655;DHT22;6392;44.644;11.448;2023-12-14T01:03:20;8.10;99.90
12655;DHT22;6392;44.644;11.448;2023-12-14T01:05:47;8.20;99.90
12655;DHT22;6392;44.644;11.448;2023-12-14T01:08:14;8.20;99.90
12655;DHT22;6392;44.644;11.448;2023-12-14T01:10:41;8.20;99.90
12655;DHT22;6392;44.644;11.448;2023-12-14T01:13:10;8.20;99.90
12655;DHT22;6392;44.644;11.448;2023-12-14T01:15:37;8.10;99.90
12655;DHT22;6392;44.644;11.448;2023-12-14T01:18:04;8.20;99.90
12655;DHT22;6392;44.644;11.448;2023-12-14T01:20:31;8.20;99.90
12655;DHT22;6392;44.644;11.448;2023-12-14T01:22:58;8.20;99.90
12655;DHT22;6392;44.644;11.448;2023-12-14T01:25:25;8.10;99.90
12655;DHT22;6392;44.644;11.448;2023-12-14T01:27:52;8.10;99.90
12655;DHT22;6392;44.644;11.448;2023-12-14T01:30:21;8.10;99.90
12655;DHT22;6392;44.644;11.448;2023-12-14T01:32:49;8.10;99.90
12655;DHT22;6392;44.644;11.448;2023-12-14T01:35:16;8.10;99.90
12655;DHT22;6392;44.644;11.448;2023-12-14T01:37:43;8.00;99.90
12655;DHT22;6392;44.644;11.448;2023-12-14T01:40:11;8.00;99.90
12655;DHT22;6392;44.644;11.448;2023-12-14T01:42:38;8.00;99.90
12655;DHT22;6392;44.644;11.448;2023-12-14T01:45:06;8.00;99.90
12655;DHT22;6392;44.644;11.448;2023-12-14T01:47:34;8.00;99.90
12655;DHT22;6392;44.644;11.448;2023-12-14T01:50:01;8.00;99.90
12655;DHT22;6392;44.644;11.448;2023-12-14T01:52:28;8.00;99.90
12655;DHT22;6392;44.644;11.448;2023-12-14T01:54:55;8.00;99.90
12655;DHT22;6392;44.644;11.448;2023-12-14T01:57:24;7.90;99.90
12655;DHT22;6392;44.644;11.448;2023-12-14T01:59:51;7.90;99.90
12655;DHT22;6392;44.644;11.448;2023-12-14T02:02:18;7.90;99.90
12655;DHT22;6392;44.644;11.448;2023-12-14T02:04:47;7.90;99.90
12655;DHT22;6392;44.644;11.448;2023-12-14T02:07:14;7.90;99.90
12655;DHT22;6392;44.644;11.448;2023-12-14T02:09:41;7.90;99.90
12655;DHT22;6392;44.644;11.448;2023-12-14T02:12:08;7.90;99.90
12655;DHT22;6392;44.644;11.448;2023-12-14T02:14:35;7.90;99.90
12655;DHT22;6392;44.644;11.448;2023-12-14T02:17:02;7.90;99.90
12655;DHT22;6392;44.644;11.448;2023-12-14T02:19:30;7.90;99.90
12655;DHT22;6392;44.644;11.448;2023-12-14T02:21:58;7.90;99.90
12655;DHT22;6392;44.644;11.448;2023-12-14T02:24:26;8.00;99.90
12655;DHT22;6392;44.644;11.448;2023-12-14T02:26:53;7.90;99.90
12655;DHT22;6392;44.644;11.448;2023-12-14T02:29:21;7.90;99.90
12655;DHT22;6392;44.644;11.448;2023-12-14T02:31:48;7.90;99.90
12655;DHT22;6392;44.644;11.448;2023-12-14T02:34:15;7.90;99.90
12655;DHT22;6392;44.644;11.448;2023-12-14T02:36:42;7.90;99.90
12655;DHT22;6392;44.644;11.448;2023-12-14T02:39:09;7.90;99.90
12655;DHT22;6392;44.644;11.448;2023-12-14T02:41:37;7.90;99.90
12655;DHT22;6392;44.644;11.448;2023-12-14T02:44:04;7.80;99.90
12655;DHT22;6392;44.644;11.448;2023-12-14T02:46:31;7.80;99.90
12655;DHT22;6392;44.644;11.448;2023-12-14T02:48:58;7.80;99.90
12655;DHT22;6392;44.644;11.448;2023-12-14T02:51:25;7.80;99.90
12655;DHT22;6392;44.644;11.448;2023-12-14T02:53:52;7.80;99.90
12655;DHT22;6392;44.644;11.448;2023-12-14T02:56:22;7.80;99.90
12655;DHT22;6392;44.644;11.448;2023-12-14T02:58:51;7.80;99.90
12655;DHT22;6392;44.644;11.448;2023-12-14T03:01:19;7.80;99.90
12655;DHT22;6392;44.644;11.448;2023-12-14T03:03:47;7.80;99.90
12655;DHT22;6392;44.644;11.448;2023-12-14T03:06:14;7.80;99.90
12655;DHT22;6392;44.644;11.448;2023-12-14T03:08:41;7.80;99.90
12655;DHT22;6392;44.644;11.448;2023-12-14T03:11:08;7.80;99.90
12655;DHT22;6392;44.644;11.448;2023-12-14T03:13:35;7.80;99.90
12655;DHT22;6392;44.644;11.448;2023-12-14T03:16:04;7.80;99.90
12655;DHT22;6392;44.644;11.448;2023-12-14T03:18:31;7.80;99.90
12655;DHT22;6392;44.644;11.448;2023-12-14T03:20:58;7.80;99.90
12655;DHT22;6392;44.644;11.448;2023-12-14T03:23:25;7.90;99.90
12655;DHT22;6392;44.644;11.448;2023-12-14T03:25:52;7.90;99.90
12655;DHT22;6392;44.644;11.448;2023-12-14T03:28:19;7.90;99.90
12655;DHT22;6392;44.644;11.448;2023-12-14T03:30:46;7.90;99.90
12655;DHT22;6392;44.644;11.448;2023-12-14T03:33:15;7.90;99.90
12655;DHT22;6392;44.644;11.448;2023-12-14T03:35:42;8.00;99.90
12655;DHT22;6392;44.644;11.448;2023-12-14T03:38:10;8.00;99.90
12655;DHT22;6392;44.644;11.448;2023-12-14T03:40:37;8.00;99.90
12655;DHT22;6392;44.644;11.448;2023-12-14T03:43:04;8.00;99.90
12655;DHT22;6392;44.644;11.448;2023-12-14T03:45:31;8.00;99.90
12655;DHT22;6392;44.644;11.448;2023-12-14T03:47:58;8.00;99.90
12655;DHT22;6392;44.644;11.448;2023-12-14T03:50:26;8.10;99.90
12655;DHT22;6392;44.644;11.448;2023-12-14T03:52:54;8.10;99.90
12655;DHT22;6392;44.644;11.448;2023-12-14T03:55:21;8.10;99.90
12655;DHT22;6392;44.644;11.448;2023-12-14T03:57:48;8.10;99.90
12655;DHT22;6392;44.644;11.448;2023-12-14T04:00:16;8.10;99.90
12655;DHT22;6392;44.644;11.448;2023-12-14T04:02:43;8.10;99.90
12655;DHT22;6392;44.644;11.448;2023-12-14T04:05:10;8.10;99.90
12655;DHT22;6392;44.644;11.448;2023-12-14T04:07:39;8.10;99.90
12655;DHT22;6392;44.644;11.448;2023-12-14T04:10:07;8.20;99.90
12655;DHT22;6392;44.644;11.448;2023-12-14T04:12:35;8.20;99.90
12655;DHT22;6392;44.644;11.448;2023-12-14T04:15:02;8.20;99.90
12655;DHT22;6392;44.644;11.448;2023-12-14T04:17:30;8.30;99.90
12655;DHT22;6392;44.644;11.448;2023-12-14T04:19:57;8.30;99.90
12655;DHT22;6392;44.644;11.448;2023-12-14T04:22:24;8.30;99.90
12655;DHT22;6392;44.644;11.448;2023-12-14T04:24:53;8.30;99.90
12655;DHT22;6392;44.644;11.448;2023-12-14T04:27:20;8.30;99.90
12655;DHT22;6392;44.644;11.448;2023-12-14T04:29:49;8.30;99.90
12655;DHT22;6392;44.644;11.448;2023-12-14T04:32:16;8.30;99.90
12655;DHT22;6392;44.644;11.448;2023-12-14T04:34:44;8.30;99.90
12655;DHT22;6392;44.644;11.448;2023-12-14T04:37:11;8.30;99.90
12655;DHT22;6392;44.644;11.448;2023-12-14T04:39:38;8.30;99.90
12655;DHT22;6392;44.644;11.448;2023-12-14T04:42:06;8.30;99.90
12655;DHT22;6392;44.644;11.448;2023-12-14T04:44:33;8.30;99.90
12655;DHT22;6392;44.644;11.448;2023-12-14T04:47:01;8.30;99.90
12655;DHT22;6392;44.644;11.448;2023-12-14T04:49:28;8.30;99.90
12655;DHT22;6392;44.644;11.448;2023-12-14T04:51:55;8.30;99.90
12655;DHT22;6392;44.644;11.448;2023-12-14T04:54:22;8.20;99.90
12655;DHT22;6392;44.644;11.448;2023-12-14T04:56:49;8.20;99.90
12655;DHT22;6392;44.644;11.448;2023-12-14T04:59:17;8.20;99.90
12655;DHT22;6392;44.644;11.448;2023-12-14T05:01:44;8.20;99.90
12655;DHT22;6392;44.644;11.448;2023-12-14T05:04:11;8.20;99.90
12655;DHT22;6392;44.644;11.448;2023-12-14T05:06:38;8.20;99.90
12655;DHT22;6392;44.644;11.448;2023-12-14T05:09:05;8.20;99.90
12655;DHT22;6392;44.644;11.448;2023-12-14T05:11:33;8.20;99.90
12655;DHT22;6392;44.644;11.448;2023-12-14T05:14:00;8.20;99.90
12655;DHT22;6392;44.644;11.448;2023-12-14T05:16:29;8.20;99.90
12655;DHT22;6392;44.644;11.448;2023-12-14T05:18:56;8.10;99.90
12655;DHT22;6392;44.644;11.448;2023-12-14T05:21:23;8.20;99.90
12655;DHT22;6392;44.644;11.448;2023-12-14T05:23:50;8.20;99.90
12655;DHT22;6392;44.644;11.448;2023-12-14T05:26:19;8.20;99.90
12655;DHT22;6392;44.644;11.448;2023-12-14T05:28:46;8.20;99.90
12655;DHT22;6392;44.644;11.448;2023-12-14T05:31:13;8.30;99.90
12655;DHT22;6392;44.644;11.448;2023-12-14T05:33:42;8.30;99.90
12655;DHT22;6392;44.644;11.448;2023-12-14T05:36:09;8.30;99.90
12655;DHT22;6392;44.644;11.448;2023-12-14T05:38:38;8.30;99.90
12655;DHT22;6392;44.644;11.448;2023-12-14T05:41:05;8.30;99.90
12655;DHT22;6392;44.644;11.448;2023-12-14T05:43:32;8.30;99.90
12655;DHT22;6392;44.644;11.448;2023-12-14T05:45:59;8.30;99.90
12655;DHT22;6392;44.644;11.448;2023-12-14T05:48:27;8.40;99.90
12655;DHT22;6392;44.644;11.448;2023-12-14T05:50:55;8.40;99.90
12655;DHT22;6392;44.644;11.448;2023-12-14T05:53:23;8.30;99.90
12655;DHT22;6392;44.644;11.448;2023-12-14T05:55:50;8.30;99.90
12655;DHT22;6392;44.644;11.448;2023-12-14T05:58:17;8.40;99.90
12655;DHT22;6392;44.644;11.448;2023-12-14T06:00:44;8.40;99.90
12655;DHT22;6392;44.644;11.448;2023-12-14T06:03:11;8.40;99.90
12655;DHT22;6392;44.644;11.448;2023-12-14T06:05:38;8.40;99.90
12655;DHT22;6392;44.644;11.448;2023-12-14T06:08:07;8.40;99.90
12655;DHT22;6392;44.644;11.448;2023-12-14T06:10:34;8.40;99.90
12655;DHT22;6392;44.644;11.448;2023-12-14T06:13:01;8.40;99.90
12655;DHT22;6392;44.644;11.448;2023-12-14T06:15:28;8.50;99.90
12655;DHT22;6392;44.644;11.448;2023-12-14T06:17:55;8.50;99.90
12655;DHT22;6392;44.644;11.448;2023-12-14T06:20:22;8.50;99.90
12655;DHT22;6392;44.644;11.448;2023-12-14T06:22:49;8.50;99.90
12655;DHT22;6392;44.644;11.448;2023-12-14T06:25:17;8.60;99.90
12655;DHT22;6392;44.644;11.448;2023-12-14T06:27:44;8.60;99.90
12655;DHT22;6392;44.644;11.448;2023-12-14T06:30:12;8.60;99.90
12655;DHT22;6392;44.644;11.448;2023-12-14T06:32:39;8.60;99.90
12655;DHT22;6392;44.644;11.448;2023-12-14T06:35:07;8.60;99.90
12655;DHT22;6392;44.644;11.448;2023-12-14T06:37:34;8.60;99.90
12655;DHT22;6392;44.644;11.448;2023-12-14T06:40:01;8.60;99.90
12655;DHT22;6392;44.644;11.448;2023-12-14T06:42:29;8.60;99.90
12655;DHT22;6392;44.644;11.448;2023-12-14T06:44:57;8.60;99.90
12655;DHT22;6392;44.644;11.448;2023-12-14T06:47:24;8.60;99.90
12655;DHT22;6392;44.644;11.448;2023-12-14T06:49:51;8.60;99.90
12655;DHT22;6392;44.644;11.448;2023-12-14T06:52:18;8.60;99.90
12655;DHT22;6392;44.644;11.448;2023-12-14T06:54:45;8.70;99.90
12655;DHT22;6392;44.644;11.448;2023-12-14T06:57:12;8.70;99.90
12655;DHT22;6392;44.644;11.448;2023-12-14T06:59:40;8.80;99.90
12655;DHT22;6392;44.644;11.448;2023-12-14T07:02:07;8.80;99.90
12655;DHT22;6392;44.644;11.448;2023-12-14T07:04:34;8.80;99.90
12655;DHT22;6392;44.644;11.448;2023-12-14T07:07:01;8.80;99.90
12655;DHT22;6392;44.644;11.448;2023-12-14T07:09:29;8.90;99.90
12655;DHT22;6392;44.644;11.448;2023-12-14T07:11:56;8.90;99.90
12655;DHT22;6392;44.644;11.448;2023-12-14T07:14:23;8.90;99.90
12655;DHT22;6392;44.644;11.448;2023-12-14T07:16:51;8.90;99.90
12655;DHT22;6392;44.644;11.448;2023-12-14T07:19:18;9.00;99.90
12655;DHT22;6392;44.644;11.448;2023-12-14T07:21:46;9.00;99.90
12655;DHT22;6392;44.644;11.448;2023-12-14T07:24:13;9.00;99.90
12655;DHT22;6392;44.644;11.448;2023-12-14T07:26:40;9.00;99.90
12655;DHT22;6392;44.644;11.448;2023-12-14T07:29:07;9.00;99.90
12655;DHT22;6392;44.644;11.448;2023-12-14T07:31:34;9.00;99.90
12655;DHT22;6392;44.644;11.448;2023-12-14T07:34:02;9.00;99.90
12655;DHT22;6392;44.644;11.448;2023-12-14T07:36:30;8.90;99.90
12655;DHT22;6392;44.644;11.448;2023-12-14T07:38:57;8.90;99.90
12655;DHT22;6392;44.644;11.448;2023-12-14T07:41:26;8.90;99.90
12655;DHT22;6392;44.644;11.448;2023-12-14T07:43:55;8.90;99.90
12655;DHT22;6392;44.644;11.448;2023-12-14T07:46:22;8.80;99.90
12655;DHT22;6392;44.644;11.448;2023-12-14T07:48:49;8.80;99.90
12655;DHT22;6392;44.644;11.448;2023-12-14T07:51:18;8.80;99.90
12655;DHT22;6392;44.644;11.448;2023-12-14T07:53:45;8.80;99.90
12655;DHT22;6392;44.644;11.448;2023-12-14T07:56:12;8.90;99.90
12655;DHT22;6392;44.644;11.448;2023-12-14T07:58:39;8.90;99.90
12655;DHT22;6392;44.644;11.448;2023-12-14T08:01:06;8.90;99.90
12655;DHT22;6392;44.644;11.448;2023-12-14T08:03:34;8.90;99.90
12655;DHT22;6392;44.644;11.448;2023-12-14T08:06:02;9.00;99.90
12655;DHT22;6392;44.644;11.448;2023-12-14T08:08:30;9.00;99.90
12655;DHT22;6392;44.644;11.448;2023-12-14T08:10:57;9.10;99.90
12655;DHT22;6392;44.644;11.448;2023-12-14T08:13:24;9.20;99.90
12655;DHT22;6392;44.644;11.448;2023-12-14T08:15:51;9.20;99.90
12655;DHT22;6392;44.644;11.448;2023-12-14T08:18:18;9.10;99.90
12655;DHT22;6392;44.644;11.448;2023-12-14T08:20:45;9.10;99.90
12655;DHT22;6392;44.644;11.448;2023-12-14T08:23:12;9.10;99.90
12655;DHT22;6392;44.644;11.448;2023-12-14T08:25:41;9.10;99.90
12655;DHT22;6392;44.644;11.448;2023-12-14T08:28:08;9.10;99.90
12655;DHT22;6392;44.644;11.448;2023-12-14T08:30:35;9.10;99.90
12655;DHT22;6392;44.644;11.448;2023-12-14T08:33:03;9.10;99.90
12655;DHT22;6392;44.644;11.448;2023-12-14T08:35:30;9.10;99.90
12655;DHT22;6392;44.644;11.448;2023-12-14T08:37:56;9.10;99.90
12655;DHT22;6392;44.644;11.448;2023-12-14T08:40:23;9.10;99.90
12655;DHT22;6392;44.644;11.448;2023-12-14T08:42:52;9.10;99.90
12655;DHT22;6392;44.644;11.448;2023-12-14T08:45:19;9.20;99.90
12655;DHT22;6392;44.644;11.448;2023-12-14T08:47:46;9.20;99.90
12655;DHT22;6392;44.644;11.448;2023-12-14T08:50:13;9.20;99.90
12655;DHT22;6392;44.644;11.448;2023-12-14T08:52:40;9.30;99.90
12655;DHT22;6392;44.644;11.448;2023-12-14T08:55:08;9.30;99.90
12655;DHT22;6392;44.644;11.448;2023-12-14T08:57:35;9.30;99.90
12655;DHT22;6392;44.644;11.448;2023-12-14T09:00:05;9.30;99.90
12655;DHT22;6392;44.644;11.448;2023-12-14T09:02:32;9.30;99.90
12655;DHT22;6392;44.644;11.448;2023-12-14T09:04:59;9.30;99.90
12655;DHT22;6392;44.644;11.448;2023-12-14T09:07:26;9.40;99.90
12655;DHT22;6392;44.644;11.448;2023-12-14T09:09:53;9.40;99.90
12655;DHT22;6392;44.644;11.448;2023-12-14T09:12:20;9.40;99.90
12655;DHT22;6392;44.644;11.448;2023-12-14T09:14:47;9.40;99.90
12655;DHT22;6392;44.644;11.448;2023-12-14T09:17:16;9.50;99.90
12655;DHT22;6392;44.644;11.448;2023-12-14T09:19:44;9.60;99.90
12655;DHT22;6392;44.644;11.448;2023-12-14T09:22:11;9.60;99.90
12655;DHT22;6392;44.644;11.448;2023-12-14T09:24:38;9.70;99.90
12655;DHT22;6392;44.644;11.448;2023-12-14T09:27:05;9.70;99.90
12655;DHT22;6392;44.644;11.448;2023-12-14T09:29:32;9.80;99.90
12655;DHT22;6392;44.644;11.448;2023-12-14T09:31:59;9.80;99.90
12655;DHT22;6392;44.644;11.448;2023-12-14T09:34:29;9.80;99.90
12655;DHT22;6392;44.644;11.448;2023-12-14T09:36:56;9.70;99.90
12655;DHT22;6392;44.644;11.448;2023-12-14T09:39:23;9.70;99.90
12655;DHT22;6392;44.644;11.448;2023-12-14T09:41:50;9.80;99.90
12655;DHT22;6392;44.644;11.448;2023-12-14T09:44:17;9.80;99.90
12655;DHT22;6392;44.644;11.448;2023-12-14T09:46:45;9.90;99.90
12655;DHT22;6392;44.644;11.448;2023-12-14T09:49:15;9.90;99.90
12655;DHT22;6392;44.644;11.448;2023-12-14T09:51:45;10.00;99.90
12655;DHT22;6392;44.644;11.448;2023-12-14T09:54:12;9.90;99.90
12655;DHT22;6392;44.644;11.448;2023-12-14T09:56:46;10.00;99.90
12655;DHT22;6392;44.644;11.448;2023-12-14T09:59:13;10.00;99.90
12655;DHT22;6392;44.644;11.448;2023-12-14T10:01:41;10.00;99.90
12655;DHT22;6392;44.644;11.448;2023-12-14T10:04:10;10.00;99.90
12655;DHT22;6392;44.644;11.448;2023-12-14T10:06:38;10.00;99.90
12655;DHT22;6392;44.644;11.448;2023-12-14T10:09:06;10.10;99.90
12655;DHT22;6392;44.644;11.448;2023-12-14T10:11:35;10.10;99.90
12655;DHT22;6392;44.644;11.448;2023-12-14T10:14:02;10.20;99.90
12655;DHT22;6392;44.644;11.448;2023-12-14T10:16:30;10.10;99.90
12655;DHT22;6392;44.644;11.448;2023-12-14T10:18:58;10.20;99.90
12655;DHT22;6392;44.644;11.448;2023-12-14T10:21:26;10.20;99.90
12655;DHT22;6392;44.644;11.448;2023-12-14T10:23:55;10.20;99.90
12655;DHT22;6392;44.644;11.448;2023-12-14T10:26:25;10.20;99.90
12655;DHT22;6392;44.644;11.448;2023-12-14T10:28:52;10.20;99.90
12655;DHT22;6392;44.644;11.448;2023-12-14T10:31:20;10.20;99.90
12655;DHT22;6392;44.644;11.448;2023-12-14T10:33:47;10.20;99.90
12655;DHT22;6392;44.644;11.448;2023-12-14T10:36:15;10.20;99.90
12655;DHT22;6392;44.644;11.448;2023-12-14T10:38:47;10.20;99.90
12655;DHT22;6392;44.644;11.448;2023-12-14T10:41:17;10.20;99.90
12655;DHT22;6392;44.644;11.448;2023-12-14T10:43:47;10.30;99.90
12655;DHT22;6392;44.644;11.448;2023-12-14T10:46:14;10.30;99.90
12655;DHT22;6392;44.644;11.448;2023-12-14T10:48:42;10.30;99.90
12655;DHT22;6392;44.644;11.448;2023-12-14T10:51:11;10.30;99.90
12655;DHT22;6392;44.644;11.448;2023-12-14T10:53:39;10.40;99.90
12655;DHT22;6392;44.644;11.448;2023-12-14T10:56:10;10.40;99.90
12655;DHT22;6392;44.644;11.448;2023-12-14T10:58:50;10.40;99.90
12655;DHT22;6392;44.644;11.448;2023-12-14T11:01:20;10.40;99.90
12655;DHT22;6392;44.644;11.448;2023-12-14T11:03:48;10.40;99.90
12655;DHT22;6392;44.644;11.448;2023-12-14T11:06:28;10.40;99.90
12655;DHT22;6392;44.644;11.448;2023-12-14T11:08:57;10.40;99.90
12655;DHT22;6392;44.644;11.448;2023-12-14T11:11:28;10.40;99.90
12655;DHT22;6392;44.644;11.448;2023-12-14T11:13:57;10.50;99.90
12655;DHT22;6392;44.644;11.448;2023-12-14T11:16:26;10.50;99.90
12655;DHT22;6392;44.644;11.448;2023-12-14T11:19:29;10.50;99.90
12655;DHT22;6392;44.644;11.448;2023-12-14T11:22:24;10.50;99.90
12655;DHT22;6392;44.644;11.448;2023-12-14T11:24:52;10.50;99.90
12655;DHT22;6392;44.644;11.448;2023-12-14T11:27:25;10.60;99.90
12655;DHT22;6392;44.644;11.448;2023-12-14T11:29:54;10.60;99.90
12655;DHT22;6392;44.644;11.448;2023-12-14T11:32:21;10.60;99.90
12655;DHT22;6392;44.644;11.448;2023-12-14T11:34:48;10.60;99.90
12655;DHT22;6392;44.644;11.448;2023-12-14T11:37:15;10.60;99.90
12655;DHT22;6392;44.644;11.448;2023-12-14T11:39:42;10.70;99.90
12655;DHT22;6392;44.644;11.448;2023-12-14T11:42:10;10.70;99.90
12655;DHT22;6392;44.644;11.448;2023-12-14T11:44:37;10.70;99.90
12655;DHT22;6392;44.644;11.448;2023-12-14T11:47:06;10.70;99.90
12655;DHT22;6392;44.644;11.448;2023-12-14T11:49:34;10.80;99.90
12655;DHT22;6392;44.644;11.448;2023-12-14T11:52:02;10.80;99.90
12655;DHT22;6392;44.644;11.448;2023-12-14T11:54:31;10.80;99.90
12655;DHT22;6392;44.644;11.448;2023-12-14T11:57:01;10.80;99.90
12655;DHT22;6392;44.644;11.448;2023-12-14T11:59:29;10.80;99.90
12655;DHT22;6392;44.644;11.448;2023-12-14T12:01:59;10.90;99.90
12655;DHT22;6392;44.644;11.448;2023-12-14T12:04:28;10.90;99.90
12655;DHT22;6392;44.644;11.448;2023-12-14T12:07:02;11.00;99.90
12655;DHT22;6392;44.644;11.448;2023-12-14T12:09:37;11.10;99.90
12655;DHT22;6392;44.644;11.448;2023-12-14T12:12:08;11.10;99.90
12655;DHT22;6392;44.644;11.448;2023-12-14T12:14:36;11.10;99.90
12655;DHT22;6392;44.644;11.448;2023-12-14T12:17:04;11.00;99.90
12655;DHT22;6392;44.644;11.448;2023-12-14T12:19:34;11.00;99.90
12655;DHT22;6392;44.644;11.448;2023-12-14T12:22:01;11.00;99.90
12655;DHT22;6392;44.644;11.448;2023-12-14T12:24:29;11.00;99.90
12655;DHT22;6392;44.644;11.448;2023-12-14T12:26:56;11.10;99.90
12655;DHT22;6392;44.644;11.448;2023-12-14T12:29:22;11.10;99.90
12655;DHT22;6392;44.644;11.448;2023-12-14T12:31:49;11.20;99.90
12655;DHT22;6392;44.644;11.448;2023-12-14T12:34:17;11.20;99.90
12655;DHT22;6392;44.644;11.448;2023-12-14T12:36:45;11.30;99.90
12655;DHT22;6392;44.644;11.448;2023-12-14T12:39:12;11.30;99.90
12655;DHT22;6392;44.644;11.448;2023-12-14T12:41:39;11.30;99.90
12655;DHT22;6392;44.644;11.448;2023-12-14T12:44:08;11.30;99.90
12655;DHT22;6392;44.644;11.448;2023-12-14T12:46:35;11.30;99.90
12655;DHT22;6392;44.644;11.448;2023-12-14T12:49:02;11.30;99.90
12655;DHT22;6392;44.644;11.448;2023-12-14T12:51:30;11.30;99.90
12655;DHT22;6392;44.644;11.448;2023-12-14T12:53:59;11.30;99.90
12655;DHT22;6392;44.644;11.448;2023-12-14T12:56:27;11.30;99.90
12655;DHT22;6392;44.644;11.448;2023-12-14T12:58:54;11.30;99.90
12655;DHT22;6392;44.644;11.448;2023-12-14T13:01:21;11.30;99.90
12655;DHT22;6392;44.644;11.448;2023-12-14T13:03:55;11.30;99.90
12655;DHT22;6392;44.644;11.448;2023-12-14T13:06:23;11.40;99.90
12655;DHT22;6392;44.644;11.448;2023-12-14T13:08:51;11.30;99.90
12655;DHT22;6392;44.644;11.448;2023-12-14T13:11:19;11.40;99.90
12655;DHT22;6392;44.644;11.448;2023-12-14T13:13:46;11.40;99.90
12655;DHT22;6392;44.644;11.448;2023-12-14T13:16:13;11.40;99.90
12655;DHT22;6392;44.644;11.448;2023-12-14T13:18:43;11.30;99.90
12655;DHT22;6392;44.644;11.448;2023-12-14T13:21:10;11.30;99.90
12655;DHT22;6392;44.644;11.448;2023-12-14T13:23:37;11.30;99.90
12655;DHT22;6392;44.644;11.448;2023-12-14T13:26:04;11.40;99.90
12655;DHT22;6392;44.644;11.448;2023-12-14T13:28:32;11.40;99.90
12655;DHT22;6392;44.644;11.448;2023-12-14T13:30:59;11.40;99.90
12655;DHT22;6392;44.644;11.448;2023-12-14T13:33:26;11.50;99.90
12655;DHT22;6392;44.644;11.448;2023-12-14T13:35:53;11.50;99.90
12655;DHT22;6392;44.644;11.448;2023-12-14T13:38:20;11.60;99.90
12655;DHT22;6392;44.644;11.448;2023-12-14T13:40:48;11.70;99.90
12655;DHT22;6392;44.644;11.448;2023-12-14T13:43:15;11.70;99.90
12655;DHT22;6392;44.644;11.448;2023-12-14T13:45:43;11.70;99.90
12655;DHT22;6392;44.644;11.448;2023-12-14T13:48:10;11.70;99.90
12655;DHT22;6392;44.644;11.448;2023-12-14T13:50:37;11.70;99.90
12655;DHT22;6392;44.644;11.448;2023-12-14T13:53:04;11.70;99.90
12655;DHT22;6392;44.644;11.448;2023-12-14T13:55:31;11.60;99.90
12655;DHT22;6392;44.644;11.448;2023-12-14T13:57:58;11.60;99.90
12655;DHT22;6392;44.644;11.448;2023-12-14T14:00:26;11.60;99.90
12655;DHT22;6392;44.644;11.448;2023-12-14T14:02:55;11.70;99.90
12655;DHT22;6392;44.644;11.448;2023-12-14T14:05:22;11.70;99.90
12655;DHT22;6392;44.644;11.448;2023-12-14T14:07:50;11.70;99.90
12655;DHT22;6392;44.644;11.448;2023-12-14T14:10:17;11.70;99.90
12655;DHT22;6392;44.644;11.448;2023-12-14T14:12:45;11.70;99.90
12655;DHT22;6392;44.644;11.448;2023-12-14T14:15:12;11.70;99.90
12655;DHT22;6392;44.644;11.448;2023-12-14T14:17:40;11.80;99.90
12655;DHT22;6392;44.644;11.448;2023-12-14T14:20:09;11.90;99.90
12655;DHT22;6392;44.644;11.448;2023-12-14T14:22:37;12.00;99.90
12655;DHT22;6392;44.644;11.448;2023-12-14T14:25:05;12.10;99.90
12655;DHT22;6392;44.644;11.448;2023-12-14T14:27:32;12.20;99.90
12655;DHT22;6392;44.644;11.448;2023-12-14T14:30:00;12.30;99.90
12655;DHT22;6392;44.644;11.448;2023-12-14T14:32:27;12.30;99.90
12655;DHT22;6392;44.644;11.448;2023-12-14T14:34:56;12.30;99.90
12655;DHT22;6392;44.644;11.448;2023-12-14T14:37:26;12.20;99.90
12655;DHT22;6392;44.644;11.448;2023-12-14T14:39:53;12.10;99.90
12655;DHT22;6392;44.644;11.448;2023-12-14T14:42:20;12.00;99.90
12655;DHT22;6392;44.644;11.448;2023-12-14T14:44:47;11.90;99.90
12655;DHT22;6392;44.644;11.448;2023-12-14T14:47:14;11.80;99.90
12655;DHT22;6392;44.644;11.448;2023-12-14T14:49:41;11.70;99.90
12655;DHT22;6392;44.644;11.448;2023-12-14T14:52:08;11.70;99.90
12655;DHT22;6392;44.644;11.448;2023-12-14T14:54:36;11.60;99.90
12655;DHT22;6392;44.644;11.448;2023-12-14T14:57:06;11.60;99.90
12655;DHT22;6392;44.644;11.448;2023-12-14T14:59:33;11.50;99.90
12655;DHT22;6392;44.644;11.448;2023-12-14T15:02:00;11.50;99.90
12655;DHT22;6392;44.644;11.448;2023-12-14T15:04:27;11.40;99.90
12655;DHT22;6392;44.644;11.448;2023-12-14T15:06:54;11.30;99.90
12655;DHT22;6392;44.644;11.448;2023-12-14T15:09:22;11.30;99.90
12655;DHT22;6392;44.644;11.448;2023-12-14T15:11:50;11.30;99.90
12655;DHT22;6392;44.644;11.448;2023-12-14T15:14:17;11.30;99.90
12655;DHT22;6392;44.644;11.448;2023-12-14T15:16:44;11.30;99.90
12655;DHT22;6392;44.644;11.448;2023-12-14T15:19:12;11.20;99.90
12655;DHT22;6392;44.644;11.448;2023-12-14T15:21:39;11.20;99.90
12655;DHT22;6392;44.644;11.448;2023-12-14T15:24:06;11.10;99.90
12655;DHT22;6392;44.644;11.448;2023-12-14T15:26:33;11.10;99.90
12655;DHT22;6392;44.644;11.448;2023-12-14T15:29:02;11.00;99.90
12655;DHT22;6392;44.644;11.448;2023-12-14T15:31:29;10.90;99.90
12655;DHT22;6392;44.644;11.448;2023-12-14T15:33:56;10.90;99.90
12655;DHT22;6392;44.644;11.448;2023-12-14T15:36:23;10.80;99.90
12655;DHT22;6392;44.644;11.448;2023-12-14T15:38:50;10.80;99.90
12655;DHT22;6392;44.644;11.448;2023-12-14T15:41:18;10.70;99.90
12655;DHT22;6392;44.644;11.448;2023-12-14T15:43:45;10.70;99.90